sensor_id;sensor_type;location;lat;lon;timestamp;P1;durP1;ratioP1;P2;durP2;ratioP2
5742;SDS011;2896;53.500;10.020;2022-10-30T00:01:34;25.63;;;18.23;;
5742;SDS011;2896;53.500;10.020;2022-10-30T00:04:01;22.70;;;16.93;;
5742;SDS011;2896;53.500;10.020;2022-10-30T00:06:28;27.83;;;18.73;;
5742;SDS011;2896;53.500;10.020;2022-10-30T00:08:54;36.73;;;23.07;;
5742;SDS011;2896;53.500;10.020;2022-10-30T00:11:22;31.93;;;21.60;;
5742;SDS011;2896;53.500;10.020;2022-10-30T00:13:49;32.63;;;20.30;;
5742;SDS011;2896;53.500;10.020;2022-10-30T00:16:15;27.77;;;19.10;;
5742;SDS011;2896;53.500;10.020;2022-10-30T00:18:42;30.23;;;18.70;;
5742;SDS011;2896;53.500;10.020;2022-10-30T00:21:10;25.97;;;19.80;;
5742;SDS011;2896;53.500;10.020;2022-10-30T00:23:38;29.37;;;19.30;;
5742;SDS011;2896;53.500;10.020;2022-10-30T00:26:09;24.30;;;17.80;;
5742;SDS011;2896;53.500;10.020;2022-10-30T00:28:37;24.00;;;17.77;;
5742;SDS011;2896;53.500;10.020;2022-10-30T00:31:04;25.57;;;18.10;;
5742;SDS011;2896;53.500;10.020;2022-10-30T00:33:31;26.80;;;19.10;;
5742;SDS011;2896;53.500;10.020;2022-10-30T00:35:57;28.83;;;19.20;;
5742;SDS011;2896;53.500;10.020;2022-10-30T00:38:24;34.73;;;19.93;;
5742;SDS011;2896;53.500;10.020;2022-10-30T00:40:51;32.00;;;20.40;;
5742;SDS011;2896;53.500;10.020;2022-10-30T00:43:28;27.73;;;20.00;;
5742;SDS011;2896;53.500;10.020;2022-10-30T00:45:58;25.10;;;19.30;;
5742;SDS011;2896;53.500;10.020;2022-10-30T00:48:27;27.83;;;19.03;;
5742;SDS011;2896;53.500;10.020;2022-10-30T00:50:54;22.37;;;17.53;;
5742;SDS011;2896;53.500;10.020;2022-10-30T00:53:22;24.47;;;17.80;;
5742;SDS011;2896;53.500;10.020;2022-10-30T00:55:51;31.73;;;20.97;;
5742;SDS011;2896;53.500;10.020;2022-10-30T00:58:21;27.87;;;19.40;;
5742;SDS011;2896;53.500;10.020;2022-10-30T01:00:52;23.60;;;17.90;;
5742;SDS011;2896;53.500;10.020;2022-10-30T01:03:23;29.93;;;21.67;;
5742;SDS011;2896;53.500;10.020;2022-10-30T01:05:51;25.80;;;19.07;;
5742;SDS011;2896;53.500;10.020;2022-10-30T01:08:21;25.40;;;19.30;;
5742;SDS011;2896;53.500;10.020;2022-10-30T01:10:48;26.60;;;18.33;;
5742;SDS011;2896;53.500;10.020;2022-10-30T01:13:15;24.77;;;17.60;;
5742;SDS011;2896;53.500;10.020;2022-10-30T01:15:45;21.93;;;16.93;;
5742;SDS011;2896;53.500;10.020;2022-10-30T01:18:28;24.43;;;17.60;;
5742;SDS011;2896;53.500;10.020;2022-10-30T01:21:11;27.80;;;17.93;;
5742;SDS011;2896;53.500;10.020;2022-10-30T01:23:47;31.57;;;20.30;;
5742;SDS011;2896;53.500;10.020;2022-10-30T01:26:25;31.07;;;20.47;;
5742;SDS011;2896;53.500;10.020;2022-10-30T01:29:03;28.17;;;19.77;;
5742;SDS011;2896;53.500;10.020;2022-10-30T01:31:40;29.73;;;19.73;;
5742;SDS011;2896;53.500;10.020;2022-10-30T01:34:19;34.60;;;21.20;;
5742;SDS011;2896;53.500;10.020;2022-10-30T01:36:51;37.77;;;23.23;;
5742;SDS011;2896;53.500;10.020;2022-10-30T01:39:22;35.60;;;21.80;;
5742;SDS011;2896;53.500;10.020;2022-10-30T01:41:51;28.20;;;20.30;;
5742;SDS011;2896;53.500;10.020;2022-10-30T01:44:18;34.53;;;20.87;;
5742;SDS011;2896;53.500;10.020;2022-10-30T01:46:57;36.43;;;22.67;;
5742;SDS011;2896;53.500;10.020;2022-10-30T01:52:26;32.57;;;20.33;;
5742;SDS011;2896;53.500;10.020;2022-10-30T01:55:03;26.67;;;18.37;;
5742;SDS011;2896;53.500;10.020;2022-10-30T01:57:42;24.60;;;17.60;;
5742;SDS011;2896;53.500;10.020;2022-10-30T02:00:15;23.80;;;16.73;;
5742;SDS011;2896;53.500;10.020;2022-10-30T02:02:44;22.73;;;16.80;;
5742;SDS011;2896;53.500;10.020;2022-10-30T02:05:13;25.83;;;18.67;;
5742;SDS011;2896;53.500;10.020;2022-10-30T02:07:46;32.47;;;21.13;;
5742;SDS011;2896;53.500;10.020;2022-10-30T02:10:12;30.23;;;20.93;;
5742;SDS011;2896;53.500;10.020;2022-10-30T02:12:39;32.93;;;21.40;;
5742;SDS011;2896;53.500;10.020;2022-10-30T02:15:07;27.03;;;20.47;;
5742;SDS011;2896;53.500;10.020;2022-10-30T02:17:34;23.17;;;18.37;;
5742;SDS011;2896;53.500;10.020;2022-10-30T02:20:01;24.23;;;18.43;;
5742;SDS011;2896;53.500;10.020;2022-10-30T02:22:30;28.70;;;20.47;;
5742;SDS011;2896;53.500;10.020;2022-10-30T02:24:56;24.30;;;18.67;;
5742;SDS011;2896;53.500;10.020;2022-10-30T02:27:23;36.93;;;22.70;;
5742;SDS011;2896;53.500;10.020;2022-10-30T02:29:50;26.60;;;18.80;;
5742;SDS011;2896;53.500;10.020;2022-10-30T02:32:16;30.03;;;18.20;;
5742;SDS011;2896;53.500;10.020;2022-10-30T02:34:43;24.60;;;18.87;;
5742;SDS011;2896;53.500;10.020;2022-10-30T02:37:10;28.30;;;18.50;;
5742;SDS011;2896;53.500;10.020;2022-10-30T02:39:37;24.67;;;17.93;;
5742;SDS011;2896;53.500;10.020;2022-10-30T02:42:04;23.83;;;18.03;;
5742;SDS011;2896;53.500;10.020;2022-10-30T02:44:31;29.57;;;18.07;;
5742;SDS011;2896;53.500;10.020;2022-10-30T02:46:58;26.27;;;18.47;;
5742;SDS011;2896;53.500;10.020;2022-10-30T02:49:25;24.87;;;16.83;;
5742;SDS011;2896;53.500;10.020;2022-10-30T02:51:51;22.37;;;16.07;;
5742;SDS011;2896;53.500;10.020;2022-10-30T02:54:18;28.13;;;18.57;;
5742;SDS011;2896;53.500;10.020;2022-10-30T02:56:46;20.63;;;15.70;;
5742;SDS011;2896;53.500;10.020;2022-10-30T02:59:12;18.90;;;15.60;;
5742;SDS011;2896;53.500;10.020;2022-10-30T03:01:39;19.67;;;14.50;;
5742;SDS011;2896;53.500;10.020;2022-10-30T03:04:05;30.10;;;19.33;;
5742;SDS011;2896;53.500;10.020;2022-10-30T03:06:32;24.20;;;16.23;;
5742;SDS011;2896;53.500;10.020;2022-10-30T03:08:59;25.70;;;16.30;;
5742;SDS011;2896;53.500;10.020;2022-10-30T03:11:25;24.87;;;16.60;;
5742;SDS011;2896;53.500;10.020;2022-10-30T03:13:53;21.37;;;15.90;;
5742;SDS011;2896;53.500;10.020;2022-10-30T03:16:21;21.17;;;15.57;;
5742;SDS011;2896;53.500;10.020;2022-10-30T03:18:49;21.80;;;16.00;;
5742;SDS011;2896;53.500;10.020;2022-10-30T03:21:18;19.83;;;15.33;;
5742;SDS011;2896;53.500;10.020;2022-10-30T03:23:46;17.27;;;14.43;;
5742;SDS011;2896;53.500;10.020;2022-10-30T03:26:14;24.03;;;16.33;;
5742;SDS011;2896;53.500;10.020;2022-10-30T03:28:41;23.43;;;17.27;;
5742;SDS011;2896;53.500;10.020;2022-10-30T03:31:10;22.73;;;17.57;;
5742;SDS011;2896;53.500;10.020;2022-10-30T03:33:38;28.13;;;15.83;;
5742;SDS011;2896;53.500;10.020;2022-10-30T03:36:06;26.97;;;17.33;;
5742;SDS011;2896;53.500;10.020;2022-10-30T03:38:34;20.57;;;15.70;;
5742;SDS011;2896;53.500;10.020;2022-10-30T03:41:00;25.07;;;16.87;;
5742;SDS011;2896;53.500;10.020;2022-10-30T03:43:27;25.70;;;17.80;;
5742;SDS011;2896;53.500;10.020;2022-10-30T03:45:54;29.67;;;17.47;;
5742;SDS011;2896;53.500;10.020;2022-10-30T03:48:23;31.43;;;17.27;;
5742;SDS011;2896;53.500;10.020;2022-10-30T03:50:51;22.87;;;16.57;;
5742;SDS011;2896;53.500;10.020;2022-10-30T03:53:18;21.50;;;15.93;;
5742;SDS011;2896;53.500;10.020;2022-10-30T03:55:45;21.83;;;16.83;;
5742;SDS011;2896;53.500;10.020;2022-10-30T03:58:12;22.60;;;16.37;;
5742;SDS011;2896;53.500;10.020;2022-10-30T04:00:38;24.13;;;16.33;;
5742;SDS011;2896;53.500;10.020;2022-10-30T04:03:05;17.70;;;14.67;;
5742;SDS011;2896;53.500;10.020;2022-10-30T04:05:35;21.00;;;16.00;;
5742;SDS011;2896;53.500;10.020;2022-10-30T04:08:02;30.47;;;17.60;;
5742;SDS011;2896;53.500;10.020;2022-10-30T04:10:31;24.47;;;15.77;;
5742;SDS011;2896;53.500;10.020;2022-10-30T04:12:58;21.20;;;16.73;;
5742;SDS011;2896;53.500;10.020;2022-10-30T04:15:26;22.13;;;14.10;;
5742;SDS011;2896;53.500;10.020;2022-10-30T04:17:52;22.60;;;14.93;;
5742;SDS011;2896;53.500;10.020;2022-10-30T04:20:19;24.47;;;15.30;;
5742;SDS011;2896;53.500;10.020;2022-10-30T04:22:48;25.43;;;17.23;;
5742;SDS011;2896;53.500;10.020;2022-10-30T04:25:20;21.60;;;15.40;;
5742;SDS011;2896;53.500;10.020;2022-10-30T04:27:47;18.10;;;14.10;;
5742;SDS011;2896;53.500;10.020;2022-10-30T04:30:14;27.50;;;15.93;;
5742;SDS011;2896;53.500;10.020;2022-10-30T04:32:44;16.93;;;14.13;;
5742;SDS011;2896;53.500;10.020;2022-10-30T04:35:11;19.47;;;15.87;;
5742;SDS011;2896;53.500;10.020;2022-10-30T04:37:38;22.23;;;15.77;;
5742;SDS011;2896;53.500;10.020;2022-10-30T04:40:07;18.80;;;14.93;;
5742;SDS011;2896;53.500;10.020;2022-10-30T04:42:34;23.10;;;14.97;;
5742;SDS011;2896;53.500;10.020;2022-10-30T04:45:01;17.70;;;13.63;;
5742;SDS011;2896;53.500;10.020;2022-10-30T04:47:28;19.90;;;15.60;;
5742;SDS011;2896;53.500;10.020;2022-10-30T04:49:55;23.13;;;15.03;;
5742;SDS011;2896;53.500;10.020;2022-10-30T04:52:22;17.40;;;13.17;;
5742;SDS011;2896;53.500;10.020;2022-10-30T04:54:49;23.50;;;14.13;;
5742;SDS011;2896;53.500;10.020;2022-10-30T04:57:17;15.23;;;13.33;;
5742;SDS011;2896;53.500;10.020;2022-10-30T04:59:44;16.00;;;12.50;;
5742;SDS011;2896;53.500;10.020;2022-10-30T05:02:10;14.90;;;12.10;;
5742;SDS011;2896;53.500;10.020;2022-10-30T05:04:37;14.80;;;12.17;;
5742;SDS011;2896;53.500;10.020;2022-10-30T05:07:04;16.97;;;13.47;;
5742;SDS011;2896;53.500;10.020;2022-10-30T05:09:31;14.70;;;13.20;;
5742;SDS011;2896;53.500;10.020;2022-10-30T05:11:57;17.07;;;14.17;;
5742;SDS011;2896;53.500;10.020;2022-10-30T05:14:28;15.57;;;12.63;;
5742;SDS011;2896;53.500;10.020;2022-10-30T05:16:55;14.37;;;12.57;;
5742;SDS011;2896;53.500;10.020;2022-10-30T05:19:21;14.50;;;12.40;;
5742;SDS011;2896;53.500;10.020;2022-10-30T05:21:48;15.83;;;12.40;;
5742;SDS011;2896;53.500;10.020;2022-10-30T05:24:15;13.50;;;11.77;;
5742;SDS011;2896;53.500;10.020;2022-10-30T05:26:41;16.03;;;12.43;;
5742;SDS011;2896;53.500;10.020;2022-10-30T05:29:08;18.53;;;12.90;;
5742;SDS011;2896;53.500;10.020;2022-10-30T05:31:36;13.97;;;12.50;;
5742;SDS011;2896;53.500;10.020;2022-10-30T05:34:03;15.77;;;12.13;;
5742;SDS011;2896;53.500;10.020;2022-10-30T05:36:30;14.53;;;13.03;;
5742;SDS011;2896;53.500;10.020;2022-10-30T05:38:56;12.70;;;11.37;;
5742;SDS011;2896;53.500;10.020;2022-10-30T05:41:23;14.47;;;12.07;;
5742;SDS011;2896;53.500;10.020;2022-10-30T05:43:50;15.97;;;12.57;;
5742;SDS011;2896;53.500;10.020;2022-10-30T05:46:16;24.37;;;17.07;;
5742;SDS011;2896;53.500;10.020;2022-10-30T05:48:44;31.63;;;17.37;;
5742;SDS011;2896;53.500;10.020;2022-10-30T05:51:11;22.50;;;14.43;;
5742;SDS011;2896;53.500;10.020;2022-10-30T05:53:37;18.60;;;13.87;;
5742;SDS011;2896;53.500;10.020;2022-10-30T05:56:04;19.63;;;13.70;;
5742;SDS011;2896;53.500;10.020;2022-10-30T05:58:31;15.60;;;12.93;;
5742;SDS011;2896;53.500;10.020;2022-10-30T06:00:58;13.27;;;11.63;;
5742;SDS011;2896;53.500;10.020;2022-10-30T06:03:24;14.17;;;11.47;;
5742;SDS011;2896;53.500;10.020;2022-10-30T06:05:52;12.50;;;11.20;;
5742;SDS011;2896;53.500;10.020;2022-10-30T06:08:19;11.43;;;10.20;;
5742;SDS011;2896;53.500;10.020;2022-10-30T06:10:46;14.50;;;10.60;;
5742;SDS011;2896;53.500;10.020;2022-10-30T06:13:12;12.13;;;10.53;;
5742;SDS011;2896;53.500;10.020;2022-10-30T06:15:39;13.50;;;9.90;;
5742;SDS011;2896;53.500;10.020;2022-10-30T06:18:08;13.67;;;11.83;;
5742;SDS011;2896;53.500;10.020;2022-10-30T06:20:34;11.77;;;10.40;;
5742;SDS011;2896;53.500;10.020;2022-10-30T06:23:03;15.67;;;12.10;;
5742;SDS011;2896;53.500;10.020;2022-10-30T06:25:31;14.90;;;12.27;;
5742;SDS011;2896;53.500;10.020;2022-10-30T06:27:59;17.03;;;12.43;;
5742;SDS011;2896;53.500;10.020;2022-10-30T06:30:26;12.83;;;11.33;;
5742;SDS011;2896;53.500;10.020;2022-10-30T06:32:56;13.10;;;11.70;;
5742;SDS011;2896;53.500;10.020;2022-10-30T06:35:23;13.00;;;10.87;;
5742;SDS011;2896;53.500;10.020;2022-10-30T06:37:49;13.13;;;11.67;;
5742;SDS011;2896;53.500;10.020;2022-10-30T06:40:18;17.47;;;11.73;;
5742;SDS011;2896;53.500;10.020;2022-10-30T06:42:46;14.67;;;11.90;;
5742;SDS011;2896;53.500;10.020;2022-10-30T06:45:14;20.73;;;13.00;;
5742;SDS011;2896;53.500;10.020;2022-10-30T06:47:42;14.00;;;11.60;;
5742;SDS011;2896;53.500;10.020;2022-10-30T06:50:10;18.10;;;13.00;;
5742;SDS011;2896;53.500;10.020;2022-10-30T06:52:38;13.07;;;10.97;;
5742;SDS011;2896;53.500;10.020;2022-10-30T06:55:05;15.83;;;12.50;;
5742;SDS011;2896;53.500;10.020;2022-10-30T06:57:34;24.83;;;13.40;;
5742;SDS011;2896;53.500;10.020;2022-10-30T07:00:01;16.00;;;12.73;;
5742;SDS011;2896;53.500;10.020;2022-10-30T07:02:28;12.63;;;11.30;;
5742;SDS011;2896;53.500;10.020;2022-10-30T07:04:55;16.33;;;11.77;;
5742;SDS011;2896;53.500;10.020;2022-10-30T07:07:21;29.50;;;15.00;;
5742;SDS011;2896;53.500;10.020;2022-10-30T07:09:48;17.60;;;13.10;;
5742;SDS011;2896;53.500;10.020;2022-10-30T07:12:15;14.10;;;12.07;;
5742;SDS011;2896;53.500;10.020;2022-10-30T07:14:43;15.40;;;12.20;;
5742;SDS011;2896;53.500;10.020;2022-10-30T07:17:09;19.17;;;14.70;;
5742;SDS011;2896;53.500;10.020;2022-10-30T07:19:36;14.93;;;13.40;;
5742;SDS011;2896;53.500;10.020;2022-10-30T07:22:02;16.60;;;12.77;;
5742;SDS011;2896;53.500;10.020;2022-10-30T07:24:29;18.60;;;13.40;;
5742;SDS011;2896;53.500;10.020;2022-10-30T07:26:56;18.07;;;13.43;;
5742;SDS011;2896;53.500;10.020;2022-10-30T07:29:22;21.10;;;13.70;;
5742;SDS011;2896;53.500;10.020;2022-10-30T07:31:50;16.10;;;12.83;;
5742;SDS011;2896;53.500;10.020;2022-10-30T07:34:17;21.97;;;15.23;;
5742;SDS011;2896;53.500;10.020;2022-10-30T07:36:44;21.67;;;15.20;;
5742;SDS011;2896;53.500;10.020;2022-10-30T07:39:10;23.03;;;14.27;;
5742;SDS011;2896;53.500;10.020;2022-10-30T07:41:37;18.40;;;14.57;;
5742;SDS011;2896;53.500;10.020;2022-10-30T07:44:04;23.60;;;15.13;;
5742;SDS011;2896;53.500;10.020;2022-10-30T07:46:31;20.50;;;15.40;;
5742;SDS011;2896;53.500;10.020;2022-10-30T07:48:58;20.50;;;14.90;;
5742;SDS011;2896;53.500;10.020;2022-10-30T07:51:25;20.90;;;14.80;;
5742;SDS011;2896;53.500;10.020;2022-10-30T07:53:52;23.33;;;16.80;;
5742;SDS011;2896;53.500;10.020;2022-10-30T07:56:18;38.60;;;21.23;;
5742;SDS011;2896;53.500;10.020;2022-10-30T07:58:45;33.57;;;21.83;;
5742;SDS011;2896;53.500;10.020;2022-10-30T08:01:11;39.43;;;22.40;;
5742;SDS011;2896;53.500;10.020;2022-10-30T08:03:38;43.57;;;21.70;;
5742;SDS011;2896;53.500;10.020;2022-10-30T08:06:06;30.83;;;21.13;;
5742;SDS011;2896;53.500;10.020;2022-10-30T08:08:33;35.83;;;20.90;;
5742;SDS011;2896;53.500;10.020;2022-10-30T08:10:59;40.70;;;23.60;;
5742;SDS011;2896;53.500;10.020;2022-10-30T08:13:26;42.67;;;22.10;;
5742;SDS011;2896;53.500;10.020;2022-10-30T08:15:52;37.10;;;22.57;;
5742;SDS011;2896;53.500;10.020;2022-10-30T08:18:19;47.57;;;23.60;;
5742;SDS011;2896;53.500;10.020;2022-10-30T08:20:47;39.83;;;23.30;;
5742;SDS011;2896;53.500;10.020;2022-10-30T08:23:16;35.37;;;22.80;;
5742;SDS011;2896;53.500;10.020;2022-10-30T08:25:43;35.50;;;20.93;;
5742;SDS011;2896;53.500;10.020;2022-10-30T08:28:11;40.70;;;22.60;;
5742;SDS011;2896;53.500;10.020;2022-10-30T08:30:38;45.27;;;22.80;;
5742;SDS011;2896;53.500;10.020;2022-10-30T08:33:05;29.23;;;20.17;;
5742;SDS011;2896;53.500;10.020;2022-10-30T08:35:33;32.00;;;20.10;;
5742;SDS011;2896;53.500;10.020;2022-10-30T08:37:59;29.47;;;18.07;;
5742;SDS011;2896;53.500;10.020;2022-10-30T08:40:29;31.50;;;19.47;;
5742;SDS011;2896;53.500;10.020;2022-10-30T08:42:56;28.10;;;17.30;;
5742;SDS011;2896;53.500;10.020;2022-10-30T08:45:23;23.07;;;16.57;;
5742;SDS011;2896;53.500;10.020;2022-10-30T08:47:55;32.07;;;20.53;;
5742;SDS011;2896;53.500;10.020;2022-10-30T08:50:22;37.80;;;22.17;;
5742;SDS011;2896;53.500;10.020;2022-10-30T08:52:49;38.43;;;21.27;;
5742;SDS011;2896;53.500;10.020;2022-10-30T08:55:15;29.77;;;19.53;;
5742;SDS011;2896;53.500;10.020;2022-10-30T08:57:43;38.93;;;21.67;;
5742;SDS011;2896;53.500;10.020;2022-10-30T09:00:10;33.63;;;19.80;;
5742;SDS011;2896;53.500;10.020;2022-10-30T09:02:37;26.60;;;18.43;;
5742;SDS011;2896;53.500;10.020;2022-10-30T09:05:04;27.60;;;19.13;;
5742;SDS011;2896;53.500;10.020;2022-10-30T09:07:31;36.67;;;21.90;;
5742;SDS011;2896;53.500;10.020;2022-10-30T09:09:58;37.13;;;22.80;;
5742;SDS011;2896;53.500;10.020;2022-10-30T09:12:24;38.47;;;22.00;;
5742;SDS011;2896;53.500;10.020;2022-10-30T09:14:52;27.07;;;19.60;;
5742;SDS011;2896;53.500;10.020;2022-10-30T09:17:19;36.37;;;21.63;;
5742;SDS011;2896;53.500;10.020;2022-10-30T09:19:45;35.23;;;20.70;;
5742;SDS011;2896;53.500;10.020;2022-10-30T09:22:12;34.23;;;21.80;;
5742;SDS011;2896;53.500;10.020;2022-10-30T09:24:38;44.50;;;22.60;;
5742;SDS011;2896;53.500;10.020;2022-10-30T09:27:05;34.70;;;20.87;;
5742;SDS011;2896;53.500;10.020;2022-10-30T09:29:32;44.47;;;24.10;;
5742;SDS011;2896;53.500;10.020;2022-10-30T09:32:01;45.10;;;23.37;;
5742;SDS011;2896;53.500;10.020;2022-10-30T09:34:32;42.77;;;21.30;;
5742;SDS011;2896;53.500;10.020;2022-10-30T09:36:59;34.63;;;19.73;;
5742;SDS011;2896;53.500;10.020;2022-10-30T09:39:26;32.07;;;19.47;;
5742;SDS011;2896;53.500;10.020;2022-10-30T09:41:59;66.83;;;23.30;;
5742;SDS011;2896;53.500;10.020;2022-10-30T09:44:37;43.67;;;22.17;;
5742;SDS011;2896;53.500;10.020;2022-10-30T09:47:17;45.80;;;20.63;;
5742;SDS011;2896;53.500;10.020;2022-10-30T09:49:57;46.07;;;19.50;;
5742;SDS011;2896;53.500;10.020;2022-10-30T09:52:33;31.90;;;16.90;;
5742;SDS011;2896;53.500;10.020;2022-10-30T09:55:19;54.40;;;16.93;;
5742;SDS011;2896;53.500;10.020;2022-10-30T09:57:53;41.10;;;16.90;;
5742;SDS011;2896;53.500;10.020;2022-10-30T10:00:27;36.13;;;15.33;;
5742;SDS011;2896;53.500;10.020;2022-10-30T10:03:04;27.90;;;13.30;;
5742;SDS011;2896;53.500;10.020;2022-10-30T10:05:43;40.33;;;14.33;;
5742;SDS011;2896;53.500;10.020;2022-10-30T10:08:13;25.70;;;13.20;;
5742;SDS011;2896;53.500;10.020;2022-10-30T10:10:44;21.90;;;12.23;;
5742;SDS011;2896;53.500;10.020;2022-10-30T10:13:20;24.10;;;13.37;;
5742;SDS011;2896;53.500;10.020;2022-10-30T10:15:53;30.13;;;14.23;;
5742;SDS011;2896;53.500;10.020;2022-10-30T10:18:24;22.73;;;11.87;;
5742;SDS011;2896;53.500;10.020;2022-10-30T10:20:55;19.10;;;10.90;;
5742;SDS011;2896;53.500;10.020;2022-10-30T10:23:28;28.80;;;12.40;;
5742;SDS011;2896;53.500;10.020;2022-10-30T10:25:59;20.27;;;11.50;;
5742;SDS011;2896;53.500;10.020;2022-10-30T10:28:40;31.83;;;13.57;;
5742;SDS011;2896;53.500;10.020;2022-10-30T10:31:16;28.23;;;12.07;;
5742;SDS011;2896;53.500;10.020;2022-10-30T10:33:53;23.73;;;9.97;;
5742;SDS011;2896;53.500;10.020;2022-10-30T10:36:32;22.70;;;11.00;;
5742;SDS011;2896;53.500;10.020;2022-10-30T10:39:06;22.67;;;10.20;;
5742;SDS011;2896;53.500;10.020;2022-10-30T10:41:52;21.47;;;10.00;;
5742;SDS011;2896;53.500;10.020;2022-10-30T10:44:32;23.73;;;9.33;;
5742;SDS011;2896;53.500;10.020;2022-10-30T10:47:17;23.27;;;9.53;;
5742;SDS011;2896;53.500;10.020;2022-10-30T10:50:14;26.50;;;10.10;;
5742;SDS011;2896;53.500;10.020;2022-10-30T10:52:47;23.93;;;9.43;;
5742;SDS011;2896;53.500;10.020;2022-10-30T10:55:18;18.97;;;10.43;;
5742;SDS011;2896;53.500;10.020;2022-10-30T10:57:48;23.17;;;9.87;;
5742;SDS011;2896;53.500;10.020;2022-10-30T11:00:18;28.37;;;10.23;;
5742;SDS011;2896;53.500;10.020;2022-10-30T11:02:48;19.10;;;8.33;;
5742;SDS011;2896;53.500;10.020;2022-10-30T11:05:25;14.67;;;8.17;;
5742;SDS011;2896;53.500;10.020;2022-10-30T11:07:56;22.93;;;8.80;;
5742;SDS011;2896;53.500;10.020;2022-10-30T11:10:26;19.53;;;8.13;;
5742;SDS011;2896;53.500;10.020;2022-10-30T11:12:52;29.07;;;8.37;;
5742;SDS011;2896;53.500;10.020;2022-10-30T11:15:25;17.23;;;7.80;;
5742;SDS011;2896;53.500;10.020;2022-10-30T11:18:00;26.70;;;8.37;;
5742;SDS011;2896;53.500;10.020;2022-10-30T11:20:30;20.57;;;8.60;;
5742;SDS011;2896;53.500;10.020;2022-10-30T11:23:02;19.17;;;8.90;;
5742;SDS011;2896;53.500;10.020;2022-10-30T11:25:49;23.20;;;8.83;;
5742;SDS011;2896;53.500;10.020;2022-10-30T11:28:23;47.63;;;8.67;;
5742;SDS011;2896;53.500;10.020;2022-10-30T11:33:42;20.47;;;8.30;;
5742;SDS011;2896;53.500;10.020;2022-10-30T11:36:12;21.00;;;8.30;;
5742;SDS011;2896;53.500;10.020;2022-10-30T11:38:39;12.97;;;7.47;;
5742;SDS011;2896;53.500;10.020;2022-10-30T11:41:06;13.10;;;7.93;;
5742;SDS011;2896;53.500;10.020;2022-10-30T11:43:34;16.67;;;7.73;;
5742;SDS011;2896;53.500;10.020;2022-10-30T11:46:02;17.57;;;8.57;;
5742;SDS011;2896;53.500;10.020;2022-10-30T11:48:33;27.30;;;7.90;;
5742;SDS011;2896;53.500;10.020;2022-10-30T11:51:02;23.03;;;8.47;;
5742;SDS011;2896;53.500;10.020;2022-10-30T11:53:31;27.53;;;8.30;;
5742;SDS011;2896;53.500;10.020;2022-10-30T11:56:00;20.83;;;8.80;;
5742;SDS011;2896;53.500;10.020;2022-10-30T11:58:29;21.10;;;7.90;;
5742;SDS011;2896;53.500;10.020;2022-10-30T12:01:00;24.23;;;6.70;;
5742;SDS011;2896;53.500;10.020;2022-10-30T12:03:33;18.03;;;7.97;;
5742;SDS011;2896;53.500;10.020;2022-10-30T12:06:07;28.83;;;7.93;;
5742;SDS011;2896;53.500;10.020;2022-10-30T12:08:37;26.60;;;7.50;;
5742;SDS011;2896;53.500;10.020;2022-10-30T12:11:04;20.57;;;8.27;;
5742;SDS011;2896;53.500;10.020;2022-10-30T12:13:38;27.40;;;8.70;;
5742;SDS011;2896;53.500;10.020;2022-10-30T12:16:07;20.93;;;7.90;;
5742;SDS011;2896;53.500;10.020;2022-10-30T12:18:37;24.80;;;10.30;;
5742;SDS011;2896;53.500;10.020;2022-10-30T12:21:05;22.43;;;8.07;;
5742;SDS011;2896;53.500;10.020;2022-10-30T12:23:32;16.90;;;8.23;;
5742;SDS011;2896;53.500;10.020;2022-10-30T12:26:07;19.97;;;8.37;;
5742;SDS011;2896;53.500;10.020;2022-10-30T12:28:36;28.23;;;9.20;;
5742;SDS011;2896;53.500;10.020;2022-10-30T12:31:05;26.50;;;8.20;;
5742;SDS011;2896;53.500;10.020;2022-10-30T12:33:38;19.70;;;7.40;;
5742;SDS011;2896;53.500;10.020;2022-10-30T12:36:09;27.73;;;10.97;;
5742;SDS011;2896;53.500;10.020;2022-10-30T12:38:41;25.23;;;12.50;;
5742;SDS011;2896;53.500;10.020;2022-10-30T12:41:13;26.63;;;11.37;;
5742;SDS011;2896;53.500;10.020;2022-10-30T12:43:45;21.50;;;11.20;;
5742;SDS011;2896;53.500;10.020;2022-10-30T12:46:22;25.90;;;11.60;;
5742;SDS011;2896;53.500;10.020;2022-10-30T12:48:57;30.30;;;15.07;;
5742;SDS011;2896;53.500;10.020;2022-10-30T12:51:34;35.80;;;17.10;;
5742;SDS011;2896;53.500;10.020;2022-10-30T12:54:04;31.20;;;14.07;;
5742;SDS011;2896;53.500;10.020;2022-10-30T12:56:40;20.57;;;11.20;;
5742;SDS011;2896;53.500;10.020;2022-10-30T12:59:16;24.90;;;8.70;;
5742;SDS011;2896;53.500;10.020;2022-10-30T13:01:53;22.20;;;9.37;;
5742;SDS011;2896;53.500;10.020;2022-10-30T13:04:25;17.03;;;8.20;;
5742;SDS011;2896;53.500;10.020;2022-10-30T13:06:57;26.17;;;9.67;;
5742;SDS011;2896;53.500;10.020;2022-10-30T13:09:31;15.37;;;9.30;;
5742;SDS011;2896;53.500;10.020;2022-10-30T13:12:07;28.40;;;11.37;;
5742;SDS011;2896;53.500;10.020;2022-10-30T13:14:39;21.47;;;10.57;;
5742;SDS011;2896;53.500;10.020;2022-10-30T13:17:09;29.70;;;11.73;;
5742;SDS011;2896;53.500;10.020;2022-10-30T13:19:37;31.70;;;13.00;;
5742;SDS011;2896;53.500;10.020;2022-10-30T13:22:06;21.27;;;11.10;;
5742;SDS011;2896;53.500;10.020;2022-10-30T13:24:41;28.73;;;9.90;;
5742;SDS011;2896;53.500;10.020;2022-10-30T13:27:15;23.30;;;9.50;;
5742;SDS011;2896;53.500;10.020;2022-10-30T13:29:49;15.27;;;10.80;;
5742;SDS011;2896;53.500;10.020;2022-10-30T13:32:26;22.40;;;11.07;;
5742;SDS011;2896;53.500;10.020;2022-10-30T13:35:01;23.27;;;9.93;;
5742;SDS011;2896;53.500;10.020;2022-10-30T13:37:41;29.10;;;9.60;;
5742;SDS011;2896;53.500;10.020;2022-10-30T13:40:13;19.40;;;9.80;;
5742;SDS011;2896;53.500;10.020;2022-10-30T13:42:49;25.23;;;11.33;;
5742;SDS011;2896;53.500;10.020;2022-10-30T13:45:31;25.40;;;10.43;;
5742;SDS011;2896;53.500;10.020;2022-10-30T13:48:17;23.00;;;10.37;;
5742;SDS011;2896;53.500;10.020;2022-10-30T13:51:02;21.63;;;9.17;;
5742;SDS011;2896;53.500;10.020;2022-10-30T13:53:54;20.47;;;9.20;;
5742;SDS011;2896;53.500;10.020;2022-10-30T13:56:27;20.07;;;8.20;;
5742;SDS011;2896;53.500;10.020;2022-10-30T13:58:57;29.97;;;10.03;;
5742;SDS011;2896;53.500;10.020;2022-10-30T14:01:32;20.80;;;9.30;;
5742;SDS011;2896;53.500;10.020;2022-10-30T14:04:05;17.43;;;8.30;;
5742;SDS011;2896;53.500;10.020;2022-10-30T14:06:40;23.80;;;9.97;;
5742;SDS011;2896;53.500;10.020;2022-10-30T14:09:14;16.03;;;8.90;;
5742;SDS011;2896;53.500;10.020;2022-10-30T14:11:48;11.30;;;7.40;;
5742;SDS011;2896;53.500;10.020;2022-10-30T14:14:24;25.87;;;9.93;;
5742;SDS011;2896;53.500;10.020;2022-10-30T14:17:07;26.73;;;10.63;;
5742;SDS011;2896;53.500;10.020;2022-10-30T14:22:36;14.47;;;8.90;;
5742;SDS011;2896;53.500;10.020;2022-10-30T14:25:09;17.13;;;9.33;;
5742;SDS011;2896;53.500;10.020;2022-10-30T14:27:38;25.20;;;9.70;;
5742;SDS011;2896;53.500;10.020;2022-10-30T14:30:12;20.33;;;10.27;;
5742;SDS011;2896;53.500;10.020;2022-10-30T14:32:49;25.60;;;8.70;;
5742;SDS011;2896;53.500;10.020;2022-10-30T14:35:33;14.83;;;8.97;;
5742;SDS011;2896;53.500;10.020;2022-10-30T14:44:00;15.83;;;10.00;;
5742;SDS011;2896;53.500;10.020;2022-10-30T14:46:40;13.90;;;9.30;;
5742;SDS011;2896;53.500;10.020;2022-10-30T14:49:16;26.93;;;9.60;;
5742;SDS011;2896;53.500;10.020;2022-10-30T14:52:02;21.90;;;11.10;;
5742;SDS011;2896;53.500;10.020;2022-10-30T14:54:37;19.17;;;10.60;;
5742;SDS011;2896;53.500;10.020;2022-10-30T14:57:18;26.20;;;11.00;;
5742;SDS011;2896;53.500;10.020;2022-10-30T14:59:46;20.73;;;11.93;;
5742;SDS011;2896;53.500;10.020;2022-10-30T15:02:26;28.30;;;12.27;;
5742;SDS011;2896;53.500;10.020;2022-10-30T15:05:11;23.50;;;13.03;;
5742;SDS011;2896;53.500;10.020;2022-10-30T15:07:52;21.30;;;11.53;;